Almyra, Arkansas
Current Conditions -  °F | °C
As of 1:55 PM on Wednesday 26 Nov 2014 (Local Time) from KSGT Reporting Station
Clear Clear  
Wind Chill: 55°   Ceiling: Unl
Heat Index: 55°   Visibility: 10mi
Dew Point: 34°   Wind: 13mph
Humidity: 44%   Direction: 290°WNW
Pressure: 30.04"   Gusts: NA
Location:  34.41°N, 91.41°W
Report Text: KSGT 261955Z AUTO 29011KT 10SM CLR 13/01 A3004 RMK AO1
Loading
Personal Weather Stations






























Interactive Weather Map New forecast layout! Learn more

10-Day Weather Forecast

Advertisements
Track Severe Weather on mobile